Time;durP1;ratioP1;P1;durP2;ratioP2;P2;SDS_P1;SDS_P2;PMS_P1;PMS_P2;Temp;Humidity;BMP_temperature;BMP_pressure;BME280_temperature;BME280_humidity;BME280_pressure;Samples;Min_cycle;Max_cycle;Signal;HPM_P1;HPM_P2
2021/08/10 00:01:10;;;;;;;11.45;5.25;;;;;;;23.40;50.61;101035.56;5113345;28;20030;-80
2021/08/10 00:03:36;;;;;;;10.57;6.45;;;;;;;23.43;50.43;101038.38;5113140;28;20152;-80
2021/08/10 00:06:01;;;;;;;9.77;6.10;;;;;;;23.46;50.64;101034.00;5113225;28;20066;-79
2021/08/10 00:08:27;;;;;;;14.48;6.95;;;;;;;23.46;50.59;101040.38;5113163;28;20046;-80
2021/08/10 00:10:53;;;;;;;11.73;6.50;;;;;;;23.47;50.72;101052.31;5113151;28;20414;-80
2021/08/10 00:13:21;;;;;;;12.25;5.90;;;;;;;23.41;50.82;101048.31;5114142;28;20028;-80
2021/08/10 00:15:47;;;;;;;10.38;6.30;;;;;;;23.41;51.20;101046.31;5115152;28;20485;-80
2021/08/10 00:18:13;;;;;;;11.13;5.82;;;;;;;23.37;50.98;101047.50;5114427;28;20024;-80
2021/08/10 00:20:39;;;;;;;7.88;5.90;;;;;;;23.28;51.86;101045.09;5112897;28;20028;-80
2021/08/10 00:23:05;;;;;;;7.60;5.90;;;;;;;23.31;51.34;101049.88;5114127;28;20027;-80
2021/08/10 00:25:31;;;;;;;9.43;6.65;;;;;;;23.27;51.71;101054.63;5114136;28;20039;-80
2021/08/10 00:27:58;;;;;;;10.80;6.65;;;;;;;23.30;51.80;101053.06;5114132;28;20028;-79
2021/08/10 00:30:24;;;;;;;11.23;5.93;;;;;;;23.30;51.62;101047.47;5113979;28;20024;-80
2021/08/10 00:32:49;;;;;;;12.20;6.88;;;;;;;23.34;51.59;101048.28;5114040;28;20102;-80
2021/08/10 00:35:15;;;;;;;18.08;7.00;;;;;;;23.32;51.78;101048.69;5113980;28;20027;-79
2021/08/10 00:37:41;;;;;;;15.52;6.50;;;;;;;23.30;52.03;101055.84;5112591;28;20031;-80
2021/08/10 00:40:09;;;;;;;12.02;6.28;;;;;;;23.30;51.57;101059.44;5113881;28;20055;-80
2021/08/10 00:42:35;;;;;;;10.60;7.15;;;;;;;23.37;51.49;101059.47;5113546;28;20054;-79
2021/08/10 00:45:02;;;;;;;17.00;6.72;;;;;;;23.41;51.26;101065.03;5114030;28;20027;-80
2021/08/10 00:47:28;;;;;;;13.43;7.45;;;;;;;23.26;51.75;101072.53;5116219;28;20492;-80
2021/08/10 00:49:53;;;;;;;12.90;7.55;;;;;;;23.21;51.74;101070.16;5113733;28;20032;-79
2021/08/10 00:52:19;;;;;;;10.38;6.45;;;;;;;23.07;52.25;101079.22;5113578;28;20042;-79
2021/08/10 00:54:44;;;;;;;14.23;6.93;;;;;;;23.11;52.36;101074.47;5113662;28;20031;-80
2021/08/10 00:57:10;;;;;;;13.38;6.80;;;;;;;23.10;52.24;101081.22;5113546;28;20031;-79
2021/08/10 00:59:36;;;;;;;13.98;7.78;;;;;;;23.16;52.03;101068.53;5113490;28;20034;-80
2021/08/10 01:02:03;;;;;;;13.18;7.68;;;;;;;23.17;52.09;101078.47;5113759;27;20027;-79
2021/08/10 01:04:29;;;;;;;11.20;6.68;;;;;;;23.26;51.69;101083.69;5113240;28;20525;-80
2021/08/10 01:07:13;;;;;;;13.00;7.15;;;;;;;23.24;52.16;101091.66;5113421;28;20035;-80
2021/08/10 01:09:51;;;;;;;15.48;6.68;;;;;;;23.24;52.22;101088.88;5112112;28;20093;-80
2021/08/10 01:12:27;;;;;;;14.32;7.70;;;;;;;23.24;52.23;101084.09;5114079;28;20034;-79
2021/08/10 01:15:02;;;;;;;11.07;6.47;;;;;;;23.25;52.21;101077.31;5112058;28;20032;-80
2021/08/10 01:17:38;;;;;;;15.80;6.80;;;;;;;23.36;51.62;101077.38;5113278;28;20034;-80
2021/08/10 01:20:28;;;;;;;18.80;7.82;;;;;;;23.43;51.14;101073.84;5111995;28;20023;-79
2021/08/10 01:22:54;;;;;;;;;;;;;;;23.46;51.37;101078.59;5113571;28;20032;-80
2021/08/10 01:25:31;;;;;;;13.05;7.70;;;;;;;23.36;51.65;101079.38;5113189;28;19919;-80
2021/08/10 01:28:26;;;;;;;14.88;6.78;;;;;;;23.23;51.70;101076.13;5113140;28;20500;-79
2021/08/10 01:31:07;;;;;;;10.50;7.00;;;;;;;23.26;51.95;101076.13;5085036;28;20063;-80
2021/08/10 01:33:57;;;;;;;11.50;7.05;;;;;;;23.32;51.60;101084.13;5111844;28;20050;-79
2021/08/10 01:36:24;;;;;;;14.68;6.82;;;;;;;23.32;51.64;101086.91;5111695;28;20031;-81
2021/08/10 01:38:55;;;;;;;16.15;7.57;;;;;;;23.35;51.40;101083.31;5112842;28;20076;-80
2021/08/10 01:41:22;;;;;;;10.73;7.30;;;;;;;23.39;51.07;101086.94;5110636;28;20032;-80
2021/08/10 01:43:50;;;;;;;10.93;6.80;;;;;;;23.40;51.20;101088.53;5111532;28;20164;-80
2021/08/10 01:46:17;;;;;;;11.13;7.57;;;;;;;23.42;51.27;101086.16;5112918;28;20027;-80
2021/08/10 01:48:43;;;;;;;13.77;7.40;;;;;;;23.39;51.41;101086.94;5112924;28;20028;-80
2021/08/10 01:51:09;;;;;;;9.82;7.22;;;;;;;23.28;51.75;101080.53;5112924;28;20039;-79
2021/08/10 01:53:37;;;;;;;15.40;7.85;;;;;;;23.29;51.70;101084.91;5113114;28;20446;-79
2021/08/10 01:56:04;;;;;;;14.35;7.22;;;;;;;23.31;51.46;101090.91;5112806;28;20030;-80
2021/08/10 01:58:31;;;;;;;15.82;7.28;;;;;;;23.34;51.56;101085.31;5111535;28;20114;-80
2021/08/10 02:00:58;;;;;;;16.13;7.53;;;;;;;23.37;51.31;101084.56;5112849;28;20030;-80
2021/08/10 02:03:26;;;;;;;12.18;7.15;;;;;;;23.39;51.43;101082.16;5112768;28;20032;-80
2021/08/10 02:05:53;;;;;;;14.50;7.55;;;;;;;23.41;51.19;101088.13;5112969;28;20462;-79
2021/08/10 02:08:21;;;;;;;13.65;7.95;;;;;;;23.26;51.69;101092.84;5113101;28;20024;-79
2021/08/10 02:10:48;;;;;;;13.25;7.32;;;;;;;23.37;51.47;101094.91;5112683;28;20549;-80
2021/08/10 02:13:14;;;;;;;13.98;7.30;;;;;;;23.37;51.22;101100.50;5112923;28;20063;-79
2021/08/10 02:15:44;;;;;;;17.73;9.45;;;;;;;23.33;51.27;101108.03;5113171;28;20501;-79
2021/08/10 02:18:10;;;;;;;17.13;7.85;;;;;;;23.33;51.37;101113.59;5116644;28;20035;-79
2021/08/10 02:20:37;;;;;;;14.70;7.30;;;;;;;23.37;51.35;101109.66;5116671;28;20032;-80
2021/08/10 02:23:05;;;;;;;11.50;7.47;;;;;;;23.31;51.66;101115.97;5116548;28;20024;-80
2021/08/10 02:25:32;;;;;;;19.77;8.32;;;;;;;23.25;51.67;101113.56;5116421;28;20080;-80
2021/08/10 02:28:00;;;;;;;13.70;7.93;;;;;;;23.35;51.26;101111.22;5116774;28;20076;-79
2021/08/10 02:30:29;;;;;;;17.95;9.05;;;;;;;23.34;51.32;101110.41;5116411;28;20023;-80
2021/08/10 02:32:57;;;;;;;15.27;8.43;;;;;;;23.35;51.42;101108.41;5117599;27;20088;-79
2021/08/10 02:35:25;;;;;;;15.38;8.57;;;;;;;23.39;51.20;101112.84;5116319;28;20030;-79
2021/08/10 02:37:52;;;;;;;10.32;7.75;;;;;;;23.38;51.28;101111.25;5116273;28;20024;-79
2021/08/10 02:40:20;;;;;;;12.65;7.82;;;;;;;23.41;51.39;101116.03;5116267;28;20026;-79
2021/08/10 02:42:52;;;;;;;19.17;8.05;;;;;;;23.32;51.57;101112.81;5115902;28;20043;-80
2021/08/10 02:45:18;;;;;;;13.77;8.20;;;;;;;23.37;51.31;101120.00;5149294;27;20024;-80
2021/08/10 02:47:54;;;;;;;15.35;8.45;;;;;;;23.33;51.71;101124.75;5116115;28;20020;-80
2021/08/10 02:50:21;;;;;;;14.32;7.53;;;;;;;23.34;51.12;101126.34;5116397;28;20019;-79
2021/08/10 02:52:47;;;;;;;12.68;7.47;;;;;;;23.37;51.02;101126.38;5116027;28;20025;-79
2021/08/10 02:55:14;;;;;;;14.65;8.25;;;;;;;23.33;50.92;101130.31;5115990;28;20489;-79
2021/08/10 02:57:54;;;;;;;12.82;7.72;;;;;;;23.39;51.09;101128.78;5116875;28;20030;-86
2021/08/10 03:00:21;;;;;;;15.77;7.47;;;;;;;23.38;51.04;101135.53;5115964;27;20374;-85
2021/08/10 03:02:51;;;;;;;13.25;8.52;;;;;;;23.36;51.02;101140.72;5114666;28;20028;-80
2021/08/10 03:05:29;;;;;;;20.17;8.23;;;;;;;23.42;51.31;101148.28;5116173;28;20610;-80
2021/08/10 03:07:57;;;;;;;20.98;7.43;;;;;;;23.45;50.94;101149.53;5115927;28;20027;-82
2021/08/10 03:10:29;;;;;;;15.80;7.82;;;;;;;23.43;51.28;101158.28;5116075;28;20027;-79
2021/08/10 03:12:56;;;;;;;8.70;7.00;;;;;;;23.48;50.80;101148.72;5115862;28;20023;-79
2021/08/10 03:15:27;;;;;;;9.75;7.63;;;;;;;23.48;50.82;101159.88;5115797;28;20065;-80
2021/08/10 03:18:00;;;;;;;14.75;7.90;;;;;;;23.48;50.91;101151.50;5115705;28;20023;-80
2021/08/10 03:20:27;;;;;;;13.05;7.78;;;;;;;23.48;50.67;101157.88;5115663;28;20023;-79
2021/08/10 03:22:54;;;;;;;13.20;7.28;;;;;;;23.52;50.76;101152.34;5115510;28;20051;-80
2021/08/10 03:25:22;;;;;;;11.27;7.03;;;;;;;23.50;50.65;101154.69;5115360;27;20023;-80
2021/08/10 03:27:50;;;;;;;13.40;8.27;;;;;;;23.57;50.50;101157.53;5115030;27;20020;-79
2021/08/10 03:30:17;;;;;;;12.75;7.30;;;;;;;23.60;50.53;101161.53;5115206;28;20020;-79
2021/08/10 03:32:44;;;;;;;19.90;7.75;;;;;;;23.63;50.58;101163.56;5115090;28;20024;-80
2021/08/10 03:35:11;;;;;;;22.42;8.00;;;;;;;23.53;50.73;101157.53;5115144;28;20050;-80
2021/08/10 03:37:37;;;;;;;14.80;7.80;;;;;;;23.59;50.34;101159.94;5113962;28;20107;-78
2021/08/10 03:40:05;;;;;;;13.13;6.95;;;;;;;23.54;50.61;101164.69;5115224;28;20024;-81
2021/08/10 03:42:32;;;;;;;22.63;7.95;;;;;;;23.53;50.60;101168.69;5113454;28;20468;-80
2021/08/10 03:44:58;;;;;;;22.90;7.97;;;;;;;23.56;50.49;101167.09;5115020;28;20032;-80
2021/08/10 03:47:24;;;;;;;14.70;7.13;;;;;;;23.54;50.57;101163.91;5114966;28;20059;-84
2021/08/10 03:49:53;;;;;;;13.93;6.55;;;;;;;23.56;50.60;101163.50;5114946;28;20079;-80
2021/08/10 03:52:19;;;;;;;13.05;8.27;;;;;;;23.51;50.51;101164.69;5115120;28;20385;-80
2021/08/10 03:54:44;;;;;;;15.65;7.30;;;;;;;23.48;50.71;101165.47;5115083;28;20110;-80
2021/08/10 03:57:14;;;;;;;18.90;7.50;;;;;;;23.48;50.88;101171.84;5115004;28;20024;-80
2021/08/10 03:59:42;;;;;;;13.75;8.02;;;;;;;23.45;50.72;101171.81;5115240;28;20019;-79
2021/08/10 04:02:09;;;;;;;16.02;7.60;;;;;;;23.46;50.36;101173.41;5114681;28;20054;-80
2021/08/10 04:04:36;;;;;;;17.65;7.65;;;;;;;23.47;50.55;101177.81;5113277;28;20497;-80
2021/08/10 04:07:03;;;;;;;14.55;8.05;;;;;;;23.44;50.68;101182.19;5114546;28;20497;-81
2021/08/10 04:09:29;;;;;;;14.85;7.03;;;;;;;23.44;50.68;101178.59;5113297;28;20069;-82
2021/08/10 04:11:55;;;;;;;14.38;6.90;;;;;;;23.40;50.52;101186.13;5114549;28;20076;-80
2021/08/10 04:14:21;;;;;;;11.55;6.85;;;;;;;23.38;50.65;101182.94;5114437;28;20092;-80
2021/08/10 04:16:51;;;;;;;17.38;7.80;;;;;;;23.37;50.72;101186.91;5114535;28;20023;-81
2021/08/10 04:19:21;;;;;;;19.30;7.43;;;;;;;23.34;50.82;101184.91;5114771;28;20020;-80
2021/08/10 04:21:46;;;;;;;22.33;8.10;;;;;;;23.37;50.53;101184.13;5114582;28;20024;-80
2021/08/10 04:24:12;;;;;;;21.00;7.80;;;;;;;23.39;50.38;101184.53;5114249;28;20034;-80
2021/08/10 04:26:38;;;;;;;14.40;7.18;;;;;;;23.42;50.49;101180.97;5114232;28;20027;-80
2021/08/10 04:29:04;;;;;;;18.40;6.90;;;;;;;23.41;50.82;101187.72;5114174;28;20130;-81
2021/08/10 04:31:30;;;;;;;16.67;7.50;;;;;;;23.40;50.40;101188.91;5114459;28;20085;-80
2021/08/10 04:33:56;;;;;;;16.88;7.60;;;;;;;23.42;50.66;101194.91;5114018;28;20024;-80
2021/08/10 04:36:21;;;;;;;21.55;8.07;;;;;;;23.38;50.81;101194.91;5114104;28;20023;-79
2021/08/10 04:38:47;;;;;;;18.23;11.10;;;;;;;23.32;50.93;101199.22;5113327;28;20378;-80
2021/08/10 04:41:13;;;;;;;16.10;7.95;;;;;;;23.34;51.05;101202.44;5114001;28;20224;-80
2021/08/10 04:43:38;;;;;;;14.27;7.93;;;;;;;23.41;50.81;101205.25;5112294;28;20120;-79
2021/08/10 04:46:04;;;;;;;28.88;9.07;;;;;;;23.40;50.90;101198.09;5113882;28;20531;-80
2021/08/10 04:48:29;;;;;;;18.05;8.05;;;;;;;23.36;50.94;101204.84;5113805;28;20095;-82
2021/08/10 04:50:55;;;;;;;12.25;7.20;;;;;;;23.35;51.06;101203.22;5113834;28;20051;-80
2021/08/10 04:53:21;;;;;;;13.38;7.38;;;;;;;23.41;50.83;101202.47;5114067;28;20028;-80
2021/08/10 04:55:46;;;;;;;16.42;7.15;;;;;;;23.41;51.12;101204.47;5113643;28;20115;-80
2021/08/10 04:58:12;;;;;;;19.30;7.50;;;;;;;23.44;51.06;101204.50;5113584;28;20381;-80
2021/08/10 05:00:38;;;;;;;22.60;9.00;;;;;;;23.42;50.97;101197.69;5113585;28;20023;-80
2021/08/10 05:03:03;;;;;;;15.15;8.10;;;;;;;23.45;51.05;101199.72;5113477;28;20035;-80
2021/08/10 05:05:29;;;;;;;28.42;8.63;;;;;;;23.33;51.71;101208.41;5113545;28;20024;-80
2021/08/10 05:07:55;;;;;;;17.25;8.15;;;;;;;23.44;51.05;101212.06;5113575;28;20028;-80
2021/08/10 05:10:21;;;;;;;14.85;8.60;;;;;;;23.37;51.47;101210.03;5113466;28;20019;-80
2021/08/10 05:12:46;;;;;;;16.80;7.45;;;;;;;23.47;51.17;101217.66;5113342;28;20028;-80
2021/08/10 05:15:12;;;;;;;13.50;7.38;;;;;;;23.54;51.01;101214.91;5113631;28;20047;-80
2021/08/10 05:17:37;;;;;;;25.08;9.75;;;;;;;23.46;51.09;101216.06;5113333;28;20477;-80
2021/08/10 05:20:04;;;;;;;16.90;7.75;;;;;;;23.50;51.17;101225.25;5113544;28;20019;-85
2021/08/10 05:22:30;;;;;;;16.38;7.68;;;;;;;23.47;51.45;101219.63;5113275;28;20024;-80
2021/08/10 05:24:55;;;;;;;17.05;8.18;;;;;;;23.43;51.58;101230.00;5113209;28;20435;-79
2021/08/10 05:27:21;;;;;;;20.95;8.43;;;;;;;23.49;51.27;101231.19;5113299;28;20422;-80
2021/08/10 05:29:46;;;;;;;21.63;8.43;;;;;;;23.46;51.26;101230.00;5111129;28;20015;-79
2021/08/10 05:32:12;;;;;;;18.50;8.68;;;;;;;23.40;51.74;101236.31;5112793;28;20023;-80
2021/08/10 05:34:38;;;;;;;16.05;7.38;;;;;;;23.42;51.39;101239.50;5113010;28;20020;-79
2021/08/10 05:37:05;;;;;;;17.52;8.38;;;;;;;23.47;51.61;101236.38;5113337;28;20051;-80
2021/08/10 05:39:30;;;;;;;20.27;8.85;;;;;;;23.49;51.76;101243.16;5112949;28;20089;-79
2021/08/10 05:41:56;;;;;;;19.42;8.10;;;;;;;23.50;51.52;101246.72;5113051;28;20023;-80
2021/08/10 05:44:22;;;;;;;19.75;8.52;;;;;;;23.49;51.55;101239.56;5112822;28;20044;-81
2021/08/10 05:46:48;;;;;;;28.73;8.90;;;;;;;23.48;51.68;101246.34;5112148;28;20034;-79
2021/08/10 05:49:14;;;;;;;10.88;6.95;;;;;;;23.57;51.28;101249.56;5114253;28;20027;-83
2021/08/10 05:51:40;;;;;;;24.45;8.63;;;;;;;23.51;51.67;101253.94;5115893;28;20024;-84
2021/08/10 05:54:07;;;;;;;15.90;7.75;;;;;;;23.58;51.11;101248.41;5117283;28;20474;-78
2021/08/10 05:56:33;;;;;;;19.77;7.80;;;;;;;23.61;51.26;101258.00;5116082;28;20542;-84
2021/08/10 05:58:59;;;;;;;14.63;6.95;;;;;;;23.65;51.12;101258.81;5116074;28;20020;-79
2021/08/10 06:01:24;;;;;;;17.83;8.00;;;;;;;23.68;51.09;101258.03;5117379;28;20089;-79
2021/08/10 06:03:50;;;;;;;23.40;9.85;;;;;;;23.56;51.51;101259.13;5117086;28;20047;-79
2021/08/10 06:06:16;;;;;;;13.48;8.48;;;;;;;23.60;51.08;101262.78;5117386;28;20020;-80
2021/08/10 06:08:42;;;;;;;17.05;7.90;;;;;;;23.67;51.15;101267.63;5117376;27;20566;-79
2021/08/10 06:11:07;;;;;;;24.63;9.20;;;;;;;23.51;51.71;101267.88;5117317;28;20051;-85
2021/08/10 06:13:36;;;;;;;12.50;8.30;;;;;;;23.64;51.12;101263.59;5117252;28;20027;-80
2021/08/10 06:16:02;;;;;;;14.70;8.07;;;;;;;23.63;51.42;101261.19;5115906;28;20027;-84
2021/08/10 06:18:28;;;;;;;31.25;9.63;;;;;;;23.58;51.35;101262.34;5115787;28;20015;-78
2021/08/10 06:20:53;;;;;;;20.52;8.77;;;;;;;23.53;51.91;101268.28;5116984;28;20498;-84
2021/08/10 06:23:19;;;;;;;24.67;9.55;;;;;;;23.60;51.71;101267.53;5150056;27;20427;-84
2021/08/10 06:25:45;;;;;;;26.52;9.45;;;;;;;23.72;51.08;101270.81;5115538;28;20035;-79
2021/08/10 06:28:10;;;;;;;26.13;10.85;;;;;;;23.60;51.52;101273.13;5150195;27;20392;-85
2021/08/10 06:30:36;;;;;;;20.98;9.75;;;;;;;23.76;50.99;101268.06;5149577;27;20107;-82
2021/08/10 06:33:03;;;;;;;20.25;8.43;;;;;;;23.77;51.21;101262.06;5116268;28;20088;-85
2021/08/10 06:35:28;;;;;;;18.35;11.02;;;;;;;23.88;51.15;101276.09;5115254;28;20027;-79
2021/08/10 06:37:55;;;;;;;21.90;9.77;;;;;;;23.89;50.92;101268.53;5114915;28;20501;-78
2021/08/10 06:40:21;;;;;;;23.92;10.15;;;;;;;23.88;51.13;101261.31;5149754;27;20024;-79
2021/08/10 06:42:46;;;;;;;18.00;8.73;;;;;;;23.86;51.05;101260.91;5114849;28;20405;-83
2021/08/10 06:45:12;;;;;;;17.85;9.52;;;;;;;23.94;51.06;101268.13;5116484;28;20038;-86
2021/08/10 06:47:37;;;;;;;22.50;9.13;;;;;;;24.00;51.00;101272.16;5115206;28;20028;-79
2021/08/10 06:50:04;;;;;;;29.15;11.55;;;;;;;23.99;51.11;101270.56;5114990;28;20043;-79
2021/08/10 06:52:29;;;;;;;14.90;9.70;;;;;;;24.05;50.92;101272.59;5116450;28;20066;-80
2021/08/10 06:54:55;;;;;;;12.70;9.32;;;;;;;24.03;51.07;101269.41;5116323;28;20031;-87
2021/08/10 06:57:20;;;;;;;20.58;10.15;;;;;;;23.88;51.31;101278.06;5115046;28;20025;-80
2021/08/10 06:59:46;;;;;;;41.90;12.60;;;;;;;24.00;51.18;101278.53;5115100;28;20030;-80
2021/08/10 07:02:12;;;;;;;26.45;12.68;;;;;;;24.08;50.75;101282.97;5115588;28;20466;-80
2021/08/10 07:04:37;;;;;;;35.92;15.00;;;;;;;24.02;51.11;101286.50;5116281;28;20036;-80
2021/08/10 07:07:04;;;;;;;27.08;12.65;;;;;;;24.04;50.83;101281.34;5116295;28;20114;-80
2021/08/10 07:09:29;;;;;;;33.35;13.23;;;;;;;24.12;50.63;101285.78;5114854;28;20449;-85
2021/08/10 07:11:55;;;;;;;22.55;12.50;;;;;;;24.11;50.41;101297.31;5114612;28;20138;-82
2021/08/10 07:14:21;;;;;;;30.90;11.90;;;;;;;24.03;50.65;101290.91;5115966;28;20032;-87
2021/08/10 07:16:47;;;;;;;20.30;11.27;;;;;;;23.73;51.40;101300.34;5115936;28;20106;-81
2021/08/10 07:19:13;;;;;;;34.80;13.10;;;;;;;23.93;50.95;101300.81;5115992;28;20089;-86
2021/08/10 07:21:40;;;;;;;38.75;13.38;;;;;;;23.93;51.06;101298.03;5116159;28;20030;-87
2021/08/10 07:24:06;;;;;;;17.33;11.75;;;;;;;24.05;50.62;101308.06;5114414;28;20653;-79
2021/08/10 07:26:33;;;;;;;23.48;13.98;;;;;;;23.99;50.78;101304.06;5114439;28;20032;-85
2021/08/10 07:28:59;;;;;;;34.17;14.75;;;;;;;23.99;50.61;101301.25;5115735;28;20038;-80
2021/08/10 07:31:25;;;;;;;37.65;14.25;;;;;;;23.90;50.64;101304.41;5115611;28;20054;-80
2021/08/10 07:33:51;;;;;;;22.95;14.60;;;;;;;23.94;50.79;101299.63;5115452;28;20470;-86
2021/08/10 07:36:17;;;;;;;17.35;12.43;;;;;;;24.09;50.19;101306.88;5115547;28;20031;-80
2021/08/10 07:38:44;;;;;;;24.85;13.07;;;;;;;24.12;50.00;101308.13;5115529;28;20020;-84
2021/08/10 07:41:09;;;;;;;18.98;13.35;;;;;;;24.11;50.07;101309.31;5115694;28;20023;-82
2021/08/10 07:43:35;;;;;;;20.48;14.73;;;;;;;24.17;50.08;101310.50;5115028;28;20509;-85
2021/08/10 07:46:00;;;;;;;26.52;14.57;;;;;;;24.21;50.37;101305.75;5115292;28;20525;-80
2021/08/10 07:48:26;;;;;;;22.77;13.35;;;;;;;24.15;50.37;101315.69;5115331;28;20481;-80
2021/08/10 07:50:52;;;;;;;30.73;14.82;;;;;;;24.17;50.09;101312.50;5114914;28;20100;-79
2021/08/10 07:53:21;;;;;;;28.25;14.60;;;;;;;24.24;50.20;101318.13;5115020;27;20354;-79
2021/08/10 07:55:48;;;;;;;15.77;12.20;;;;;;;24.22;50.36;101310.13;5115293;28;20105;-80
2021/08/10 07:58:14;;;;;;;27.77;14.32;;;;;;;24.29;50.38;101321.34;5115334;28;20076;-88
2021/08/10 08:00:40;;;;;;;22.52;13.52;;;;;;;24.16;50.45;101316.50;5114917;28;20043;-81
2021/08/10 08:03:05;;;;;;;27.33;13.73;;;;;;;24.33;50.31;101326.97;5114739;28;20385;-83
2021/08/10 08:05:32;;;;;;;41.22;15.15;;;;;;;24.34;50.27;101315.41;5114649;28;20080;-81
2021/08/10 08:07:58;;;;;;;29.77;13.27;;;;;;;24.39;49.99;101319.00;5114890;28;20035;-80
2021/08/10 08:10:24;;;;;;;36.83;15.60;;;;;;;24.37;50.15;101322.19;5114719;28;20032;-81
2021/08/10 08:12:50;;;;;;;19.83;12.23;;;;;;;24.50;49.90;101326.25;5112219;28;20038;-81
2021/08/10 08:15:15;;;;;;;28.10;12.50;;;;;;;24.44;49.92;101329.81;5114859;28;20114;-86
2021/08/10 08:17:41;;;;;;;23.73;12.05;;;;;;;24.54;49.66;101332.63;5114634;28;20024;-81
2021/08/10 08:20:07;;;;;;;21.73;12.45;;;;;;;24.57;49.97;101322.69;5114744;28;20027;-81
2021/08/10 08:22:33;;;;;;;28.08;13.93;;;;;;;24.45;50.01;101335.00;5114408;28;20454;-81
2021/08/10 08:24:59;;;;;;;20.58;12.45;;;;;;;24.67;49.51;101333.06;5114311;28;20058;-81
2021/08/10 08:27:25;;;;;;;28.05;13.32;;;;;;;24.60;49.76;101333.06;5113053;28;20028;-81
2021/08/10 08:29:51;;;;;;;21.70;12.10;;;;;;;24.72;49.46;101338.28;5114326;28;20172;-86
2021/08/10 08:32:16;;;;;;;23.95;13.18;;;;;;;24.82;49.59;101333.91;5114293;28;20023;-81
2021/08/10 08:34:42;;;;;;;28.38;14.50;;;;;;;24.73;49.89;101339.88;5114291;28;20042;-81
2021/08/10 08:37:07;;;;;;;13.75;11.48;;;;;;;24.99;49.06;101335.13;5114138;28;20051;-81
2021/08/10 08:39:33;;;;;;;26.02;12.63;;;;;;;24.99;49.00;101335.91;5114124;28;20038;-80
2021/08/10 08:42:00;;;;;;;20.77;11.55;;;;;;;25.00;48.92;101331.94;5114002;28;20034;-87
2021/08/10 08:44:34;;;;;;;26.98;12.73;;;;;;;25.07;49.05;101342.34;5113822;28;20059;-81
2021/08/10 08:47:03;;;;;;;19.63;11.70;;;;;;;25.22;48.42;101341.16;5114160;28;20050;-85
2021/08/10 08:49:30;;;;;;;17.30;10.75;;;;;;;25.16;48.38;101339.97;5113910;28;20020;-79
2021/08/10 08:51:59;;;;;;;20.92;12.18;;;;;;;25.10;48.47;101344.38;5113786;28;20028;-80
2021/08/10 08:54:26;;;;;;;23.73;12.40;;;;;;;25.13;48.46;101346.34;5113831;28;20020;-80
2021/08/10 08:56:51;;;;;;;19.73;11.50;;;;;;;25.09;48.23;101340.78;5113906;28;20052;-79
2021/08/10 08:59:18;;;;;;;20.35;11.70;;;;;;;25.23;47.91;101344.75;5112468;28;20100;-79
2021/08/10 09:01:44;;;;;;;17.52;12.10;;;;;;;25.45;47.21;101335.16;5113725;28;20468;-81
2021/08/10 09:04:09;;;;;;;30.25;13.00;;;;;;;25.53;47.37;101347.16;5113726;28;20107;-87
2021/08/10 09:06:35;;;;;;;19.02;11.02;;;;;;;25.72;46.93;101346.78;5113302;28;20065;-87
2021/08/10 09:09:26;;;;;;;27.63;11.93;;;;;;;25.67;46.69;101344.34;5112567;28;20065;-81
2021/08/10 09:11:54;;;;;;;20.63;10.00;;;;;;;25.94;46.29;101353.94;5112598;28;20027;-81
2021/08/10 09:14:21;;;;;;;17.75;10.50;;;;;;;25.87;46.02;101350.34;5112875;28;20052;-86
2021/08/10 09:17:08;;;;;;;19.33;9.88;;;;;;;25.96;45.92;101343.13;5113890;28;20474;-82
2021/08/10 09:19:53;;;;;;;33.42;12.13;;;;;;;25.90;45.54;101349.53;5113655;28;20024;-85
2021/08/10 09:22:32;;;;;;;18.13;10.05;;;;;;;25.99;45.99;101352.69;5112437;28;20020;-86
2021/08/10 09:25:13;;;;;;;26.48;10.23;;;;;;;25.99;45.40;101355.50;5112060;28;20028;-85
2021/08/10 09:27:40;;;;;;;23.98;10.02;;;;;;;25.99;45.44;101347.91;5111962;28;20054;-80
2021/08/10 09:30:15;;;;;;;20.42;10.07;;;;;;;26.08;45.42;101350.31;5113725;28;20503;-80
2021/08/10 09:32:52;;;;;;;11.13;8.27;;;;;;;26.07;44.83;101359.09;5112272;28;20024;-86
2021/08/10 09:35:23;;;;;;;21.83;10.38;;;;;;;25.99;44.78;101356.31;5111965;28;20030;-81
2021/08/10 09:38:02;;;;;;;32.33;10.70;;;;;;;26.05;44.83;101358.69;5113479;28;20493;-85
2021/08/10 09:40:29;;;;;;;15.85;10.13;;;;;;;25.97;45.05;101344.72;5113402;28;20024;-81
2021/08/10 09:43:26;;;;;;;12.63;8.82;;;;;;;25.82;44.91;101347.94;5112913;27;20139;-80
2021/08/10 09:46:05;;;;;;;12.57;8.82;;;;;;;25.85;44.83;101359.16;5113312;28;20444;-81
2021/08/10 09:48:30;;;;;;;20.15;8.93;;;;;;;25.82;45.36;101357.16;5111823;28;20542;-81
2021/08/10 09:51:13;;;;;;;21.02;9.57;;;;;;;25.84;44.91;101357.53;5111942;28;20067;-81
2021/08/10 09:53:40;;;;;;;20.00;9.38;;;;;;;25.86;45.36;101363.53;5113092;28;20034;-84
2021/08/10 09:56:06;;;;;;;16.02;8.85;;;;;;;25.84;45.13;101363.13;5113051;28;20032;-81
2021/08/10 09:58:56;;;;;;;11.25;7.60;;;;;;;25.75;45.50;101371.16;5111717;28;20550;-81
2021/08/10 10:01:32;;;;;;;15.23;8.93;;;;;;;25.72;45.71;101364.38;5113263;28;20020;-80
2021/08/10 10:04:09;;;;;;;14.60;8.15;;;;;;;25.72;45.64;101364.38;5111629;28;20096;-80
2021/08/10 10:06:35;;;;;;;10.93;7.03;;;;;;;25.61;46.01;101360.72;5112973;28;20486;-81
2021/08/10 10:09:02;;;;;;;9.23;7.28;;;;;;;25.48;46.02;101373.56;5112974;28;20023;-81
2021/08/10 10:11:31;;;;;;;15.27;7.90;;;;;;;25.71;45.69;101370.34;5111588;28;20030;-81
2021/08/10 10:13:58;;;;;;;13.70;7.93;;;;;;;25.65;46.16;101366.34;5112979;28;20097;-81
2021/08/10 10:16:24;;;;;;;11.85;8.13;;;;;;;25.73;46.23;101367.97;5112850;28;20499;-82
2021/08/10 10:18:53;;;;;;;10.23;7.30;;;;;;;25.64;46.16;101356.34;5112801;28;20019;-81
2021/08/10 10:21:23;;;;;;;11.98;6.80;;;;;;;25.78;45.72;101372.38;5114114;28;20460;-81
2021/08/10 10:23:53;;;;;;;11.05;7.28;;;;;;;25.72;46.10;101374.75;5112799;28;20101;-81
2021/08/10 10:26:21;;;;;;;29.48;10.38;;;;;;;25.78;45.73;101375.97;5112864;28;20066;-81
2021/08/10 10:28:47;;;;;;;25.15;9.90;;;;;;;25.92;45.76;101381.53;5113817;28;20020;-88
2021/08/10 10:31:13;;;;;;;11.38;7.63;;;;;;;25.93;45.45;101387.94;5112838;28;20020;-87
2021/08/10 10:33:40;;;;;;;15.23;7.72;;;;;;;26.12;45.11;101386.69;5113718;28;20440;-82
2021/08/10 10:36:05;;;;;;;8.57;6.85;;;;;;;26.20;45.53;101389.06;5113454;28;20072;-85
2021/08/10 10:38:32;;;;;;;26.48;8.88;;;;;;;26.24;45.36;101389.84;5115265;28;20549;-81
2021/08/10 10:41:02;;;;;;;10.63;6.95;;;;;;;26.23;45.53;101393.06;5116541;28;20505;-81
2021/08/10 10:43:29;;;;;;;9.07;6.72;;;;;;;26.26;45.11;101390.25;5116246;28;20610;-86
2021/08/10 10:45:55;;;;;;;11.20;7.82;;;;;;;26.12;45.80;101395.09;5116445;28;20028;-81
2021/08/10 10:48:27;;;;;;;8.25;7.20;;;;;;;26.25;45.73;101399.84;5114986;28;20474;-81
2021/08/10 10:51:15;;;;;;;14.00;7.93;;;;;;;26.25;45.96;101387.84;5116247;28;20026;-81
2021/08/10 10:53:45;;;;;;;10.48;6.25;;;;;;;26.27;45.48;101396.63;5114984;28;20024;-81
2021/08/10 10:56:25;;;;;;;8.73;6.38;;;;;;;26.16;45.62;101401.50;5116080;28;20019;-87
2021/08/10 10:59:21;;;;;;;11.68;6.88;;;;;;;26.25;45.25;101394.25;5116284;27;20094;-87
2021/08/10 11:01:47;;;;;;;7.38;5.30;;;;;;;26.09;45.75;101401.50;5116119;28;20058;-81
2021/08/10 11:04:13;;;;;;;8.20;5.50;;;;;;;26.27;45.21;101402.25;5114547;28;20059;-81
2021/08/10 11:06:48;;;;;;;7.22;5.63;;;;;;;26.38;45.25;101403.03;5114707;28;20099;-81
2021/08/10 11:09:46;;;;;;;8.43;6.10;;;;;;;26.39;45.60;101403.84;5116011;28;20019;-81
2021/08/10 11:12:43;;;;;;;7.95;5.05;;;;;;;26.57;45.07;101403.78;5103224;28;20028;-81
2021/08/10 11:15:13;;;;;;;11.75;5.30;;;;;;;26.38;45.22;101408.63;5132296;27;20123;-81
2021/08/10 11:17:39;;;;;;;10.75;4.75;;;;;;;26.49;44.67;101398.19;5116806;28;20149;-81
2021/08/10 11:20:22;;;;;;;9.75;4.22;;;;;;;26.58;44.04;101405.38;5115859;28;20042;-86
2021/08/10 11:22:48;;;;;;;15.40;3.60;;;;;;;26.67;44.02;101408.53;5115807;28;20024;-85